Time;durP1;ratioP1;P1;durP2;ratioP2;P2;SDS_P1;SDS_P2;PMS_P1;PMS_P2;Temp;Humidity;BMP_temperature;BMP_pressure;BME280_temperature;BME280_humidity;BME280_pressure;Samples;Min_cycle;Max_cycle;Signal;HPM_P1;HPM_P2
2021/04/15 00:00:22;;;;;;;2.92;1.48;;;3.40;91.60;;;;;;5061752;28;20044;-80
2021/04/15 00:02:48;;;;;;;2.15;1.30;;;3.40;91.50;;;;;;5066919;28;20724;-80
2021/04/15 00:05:21;;;;;;;2.30;1.30;;;3.40;91.50;;;;;;5049267;28;20042;-81
2021/04/15 00:07:47;;;;;;;2.17;1.27;;;3.50;91.50;;;;;;5069522;28;20040;-81
2021/04/15 00:10:13;;;;;;;2.40;1.52;;;3.50;91.50;;;;;;5067822;28;20028;-80
2021/04/15 00:12:39;;;;;;;4.53;1.40;;;3.50;91.50;;;;;;5047110;28;20123;-81
2021/04/15 00:15:10;;;;;;;5.78;1.77;;;3.40;91.50;;;;;;5069395;28;20032;-81
2021/04/15 00:17:36;;;;;;;3.38;1.52;;;3.50;91.60;;;;;;5063507;28;20028;-80
2021/04/15 00:20:04;;;;;;;2.60;1.50;;;3.40;91.60;;;;;;5043892;28;20039;-80
2021/04/15 00:22:30;;;;;;;4.43;1.40;;;3.50;91.60;;;;;;5052506;28;20778;-80
2021/04/15 00:24:58;;;;;;;4.80;1.60;;;3.40;91.70;;;;;;5074751;28;20028;-81
2021/04/15 00:27:24;;;;;;;2.55;1.50;;;3.40;91.60;;;;;;5069545;28;20122;-81
2021/04/15 00:29:49;;;;;;;3.53;1.90;;;3.50;91.70;;;;;;5070324;28;20087;-81
2021/04/15 00:32:15;;;;;;;3.30;1.70;;;3.40;91.90;;;;;;5077548;28;20193;-80
2021/04/15 00:34:41;;;;;;;1.48;1.05;;;3.40;91.60;;;;;;5069692;28;20041;-80
2021/04/15 00:37:07;;;;;;;1.67;1.40;;;3.30;91.50;;;;;;5067083;28;20363;-81
2021/04/15 00:39:32;;;;;;;4.13;1.50;;;3.20;91.50;;;;;;5070389;28;20055;-80
2021/04/15 00:41:58;;;;;;;2.65;1.70;;;3.10;91.50;;;;;;5054832;28;20032;-80
2021/04/15 00:44:24;;;;;;;2.55;1.35;;;3.10;91.50;;;;;;5069731;28;20224;-80
2021/04/15 00:46:59;;;;;;;3.58;1.70;;;3.10;91.50;;;;;;5077879;28;20025;-80
2021/04/15 00:49:29;;;;;;;3.80;1.70;;;3.00;91.90;;;;;;5088641;28;20056;-81
2021/04/15 00:52:02;;;;;;;3.20;1.75;;;2.90;91.60;;;;;;5076956;28;20037;-81
2021/04/15 00:54:40;;;;;;;2.67;1.48;;;2.90;91.60;;;;;;5055461;28;20100;-81
2021/04/15 00:57:11;;;;;;;2.63;1.98;;;2.80;91.70;;;;;;5077918;28;20032;-81
2021/04/15 00:59:37;;;;;;;1.73;1.45;;;2.80;91.60;;;;;;5074544;28;20051;-80
2021/04/15 01:02:03;;;;;;;2.20;1.73;;;2.70;91.70;;;;;;5069548;28;20395;-81
2021/04/15 01:04:29;;;;;;;4.75;2.38;;;2.70;91.70;;;;;;5084065;28;20035;-80
2021/04/15 01:06:55;;;;;;;1.85;1.58;;;2.70;91.70;;;;;;5073578;28;20043;-81
2021/04/15 01:09:23;;;;;;;2.35;1.63;;;2.70;91.70;;;;;;5068320;28;20060;-81
2021/04/15 01:12:14;;;;;;;2.55;1.85;;;2.60;91.60;;;;;;5070148;28;20043;-81
2021/04/15 01:14:58;;;;;;;2.25;1.80;;;2.50;91.70;;;;;;5071093;28;20113;-80
2021/04/15 01:17:30;;;;;;;2.90;1.90;;;2.40;91.60;;;;;;5072039;28;20145;-81
2021/04/15 01:20:17;;;;;;;3.70;2.00;;;2.40;91.70;;;;;;5071904;28;20593;-81
2021/04/15 01:23:02;;;;;;;3.97;1.90;;;2.30;91.70;;;;;;5070175;28;20032;-80
2021/04/15 01:25:42;;;;;;;2.47;1.90;;;2.20;91.70;;;;;;5076406;28;20123;-80
2021/04/15 01:28:20;;;;;;;5.70;1.42;;;2.10;91.70;;;;;;5069186;28;20052;-80
2021/04/15 01:30:59;;;;;;;4.20;1.40;;;2.10;91.70;;;;;;5078008;28;20498;-81
2021/04/15 01:33:27;;;;;;;3.13;1.70;;;2.00;91.80;;;;;;5067403;28;20231;-80
2021/04/15 01:36:00;;;;;;;2.75;1.83;;;2.00;91.80;;;;;;5071748;28;20532;-81
2021/04/15 01:38:41;;;;;;;2.83;1.92;;;2.00;91.90;;;;;;5072918;28;20036;-80
2021/04/15 01:41:31;;;;;;;2.85;1.83;;;1.90;92.40;;;;;;5069162;28;20381;-81
2021/04/15 01:44:13;;;;;;;1.33;1.08;;;2.00;92.20;;;;;;5077017;28;20091;-81
2021/04/15 01:46:43;;;;;;;1.80;1.40;;;2.00;92.20;;;;;;5065115;28;20063;-81
2021/04/15 01:49:12;;;;;;;1.85;1.58;;;2.00;92.00;;;;;;5072691;28;20036;-81
2021/04/15 01:51:43;;;;;;;3.00;1.10;;;1.90;92.10;;;;;;5071532;28;20032;-81
2021/04/15 01:54:43;;;;;;;1.90;1.30;;;1.90;92.10;;;;;;5080742;28;20032;-81
2021/04/15 01:57:13;;;;;;;2.75;1.10;;;1.80;92.00;;;;;;5083916;28;20089;-80
2021/04/15 01:59:47;;;;;;;1.70;1.17;;;1.80;91.90;;;;;;5081632;28;20116;-81
2021/04/15 02:02:22;;;;;;;2.53;1.35;;;1.60;91.90;;;;;;5070368;28;20484;-81
2021/04/15 02:04:57;;;;;;;2.40;1.40;;;1.60;92.00;;;;;;5070944;28;20552;-81
2021/04/15 02:07:27;;;;;;;1.50;1.15;;;1.50;92.10;;;;;;5049556;28;20053;-81
2021/04/15 02:09:54;;;;;;;1.80;1.30;;;1.50;92.10;;;;;;5073353;28;20746;-80
2021/04/15 02:12:28;;;;;;;1.42;1.13;;;1.40;92.20;;;;;;5068531;28;20036;-81
2021/04/15 02:15:00;;;;;;;100.18;3.35;;;1.40;92.20;;;;;;5067175;28;20032;-81
2021/04/15 02:17:31;;;;;;;105.45;3.75;;;1.30;92.10;;;;;;5070040;28;20054;-81
2021/04/15 02:19:59;;;;;;;15.65;1.73;;;1.20;92.10;;;;;;5069146;28;20032;-81
2021/04/15 02:22:38;;;;;;;43.22;2.22;;;1.10;92.10;;;;;;5055661;28;20060;-81
2021/04/15 02:25:10;;;;;;;32.15;2.17;;;1.10;92.30;;;;;;5077984;28;20032;-81
2021/04/15 02:27:52;;;;;;;36.63;1.73;;;1.00;92.30;;;;;;5074334;28;20041;-82
2021/04/15 02:30:24;;;;;;;72.68;2.88;;;1.00;92.50;;;;;;5071288;28;20446;-79
2021/04/15 02:32:59;;;;;;;65.47;2.33;;;1.00;92.50;;;;;;5063723;28;20121;-79
2021/04/15 02:35:32;;;;;;;49.65;2.50;;;0.90;92.50;;;;;;5078291;28;20031;-80
2021/04/15 02:38:00;;;;;;;33.00;2.42;;;0.90;92.40;;;;;;5063303;28;20028;-80
2021/04/15 02:40:30;;;;;;;9.73;1.70;;;0.90;92.50;;;;;;5049639;28;20032;-79
2021/04/15 02:42:59;;;;;;;10.70;1.58;;;0.80;92.40;;;;;;5072960;28;20058;-80
2021/04/15 02:45:39;;;;;;;5.47;0.90;;;0.70;92.40;;;;;;5075960;28;20071;-80
2021/04/15 02:48:13;;;;;;;5.47;1.13;;;0.70;92.50;;;;;;5084007;28;20469;-79
2021/04/15 02:50:41;;;;;;;29.63;2.25;;;0.60;92.60;;;;;;5069258;28;20052;-79
2021/04/15 02:53:15;;;;;;;85.22;3.08;;;0.60;92.60;;;;;;5063754;28;20360;-80
2021/04/15 02:55:52;;;;;;;38.97;2.08;;;0.60;92.70;;;;;;5063663;28;20040;-80
2021/04/15 02:58:28;;;;;;;70.35;2.53;;;0.60;92.80;;;;;;5073731;28;20062;-79
2021/04/15 03:00:56;;;;;;;17.13;1.23;;;0.70;92.80;;;;;;5067930;28;20039;-79
2021/04/15 03:03:27;;;;;;;42.75;2.25;;;0.60;92.70;;;;;;5064817;28;20071;-79
2021/04/15 03:06:02;;;;;;;8.35;1.10;;;0.60;92.70;;;;;;5067599;28;20454;-80
2021/04/15 03:08:30;;;;;;;2.92;0.98;;;0.50;92.60;;;;;;5061582;28;20036;-79
2021/04/15 03:11:15;;;;;;;6.93;1.25;;;0.50;92.70;;;;;;5067854;28;20033;-79
2021/04/15 03:13:46;;;;;;;21.48;1.95;;;0.50;92.60;;;;;;5063879;28;20052;-80
2021/04/15 03:16:16;;;;;;;8.90;1.38;;;0.40;92.50;;;;;;5088606;28;20035;-80
2021/04/15 03:18:48;;;;;;;1.55;1.20;;;0.40;92.50;;;;;;5067851;28;20126;-79
2021/04/15 03:21:14;;;;;;;2.50;1.40;;;0.30;92.50;;;;;;5067245;28;20044;-79
2021/04/15 03:23:53;;;;;;;2.67;1.80;;;0.30;92.50;;;;;;5070584;28;20040;-79
2021/04/15 03:26:40;;;;;;;3.83;2.10;;;0.20;92.60;;;;;;5069332;28;20040;-79
2021/04/15 03:29:32;;;;;;;3.67;2.03;;;0.20;92.60;;;;;;5068559;28;20375;-79
2021/04/15 03:32:09;;;;;;;2.50;1.73;;;0.20;92.70;;;;;;5070175;28;20919;-80
2021/04/15 03:35:23;;;;;;;2.67;1.80;;;0.20;92.70;;;;;;5067719;28;20697;-79
2021/04/15 03:37:53;;;;;;;3.10;1.80;;;0.20;92.70;;;;;;5028709;28;20046;-79
2021/04/15 03:40:23;;;;;;;3.58;2.40;;;0.10;92.70;;;;;;5037313;28;20048;-80
2021/04/15 03:42:58;;;;;;;5.38;2.30;;;0.20;92.80;;;;;;5060619;28;20080;-80
2021/04/15 03:45:30;;;;;;;4.32;2.60;;;0.20;92.70;;;;;;5069230;28;20128;-80
2021/04/15 03:48:01;;;;;;;;;;;0.20;92.80;;;;;;5067627;28;20125;-80
2021/04/15 03:50:49;;;;;;;5.53;3.92;;;0.20;92.90;;;;;;5064332;28;19921;-80
2021/04/15 03:53:21;;;;;;;9.50;4.22;;;0.20;92.70;;;;;;5073338;28;20122;-81
2021/04/15 03:56:00;;;;;;;8.97;3.90;;;0.20;92.70;;;;;;5082694;28;20024;-80
2021/04/15 03:58:36;;;;;;;10.75;4.38;;;0.30;92.80;;;;;;5072885;28;20290;-80
2021/04/15 04:01:09;;;;;;;9.88;4.50;;;0.30;92.80;;;;;;5076040;28;20051;-81
2021/04/15 04:03:39;;;;;;;8.25;4.32;;;0.40;92.90;;;;;;5067027;28;20039;-81
2021/04/15 04:06:10;;;;;;;10.82;4.55;;;0.50;93.30;;;;;;5065835;28;20083;-81
2021/04/15 04:08:47;;;;;;;13.85;4.85;;;0.60;92.80;;;;;;5067341;28;20042;-81
2021/04/15 04:11:17;;;;;;;9.50;5.22;;;0.60;92.80;;;;;;5066509;28;20261;-81
2021/04/15 04:13:52;;;;;;;9.27;4.57;;;0.70;92.80;;;;;;5070247;28;20036;-80
2021/04/15 04:16:39;;;;;;;10.90;5.03;;;0.70;92.80;;;;;;5067862;28;20470;-81
2021/04/15 04:19:14;;;;;;;10.60;5.03;;;0.70;92.80;;;;;;5066725;28;20031;-81
2021/04/15 04:21:55;;;;;;;12.57;5.10;;;0.70;92.80;;;;;;5069847;28;20043;-81
2021/04/15 04:24:49;;;;;;;10.48;5.00;;;0.70;92.80;;;;;;5063681;28;20040;-80
2021/04/15 04:27:30;;;;;;;9.88;4.90;;;0.70;92.80;;;;;;5068721;28;20040;-80
2021/04/15 04:30:09;;;;;;;16.98;5.47;;;0.70;92.80;;;;;;5069897;28;20495;-80
2021/04/15 04:32:39;;;;;;;13.15;4.95;;;0.60;92.70;;;;;;5068626;28;20467;-79
2021/04/15 04:35:09;;;;;;;11.80;4.75;;;0.60;92.70;;;;;;5071333;28;20031;-79
2021/04/15 04:37:42;;;;;;;7.00;3.42;;;0.60;92.70;;;;;;5053755;28;20075;-79
2021/04/15 04:40:19;;;;;;;;;;;0.50;93.00;;;;;;5057486;28;20048;-79
2021/04/15 04:43:00;;;;;;;8.23;3.35;;;0.50;92.70;;;;;;5072265;28;20454;-79
2021/04/15 04:45:27;;;;;;;6.45;3.28;;;0.40;92.60;;;;;;5072293;28;20474;-79
2021/04/15 04:47:58;;;;;;;9.05;4.20;;;0.40;92.60;;;;;;5070772;28;20041;-79
2021/04/15 04:50:24;;;;;;;7.05;3.97;;;0.30;92.60;;;;;;5067139;28;20041;-79
2021/04/15 04:52:58;;;;;;;8.93;3.75;;;0.30;92.60;;;;;;5075561;28;20047;-80
2021/04/15 04:55:24;;;;;;;7.18;3.75;;;0.20;92.70;;;;;;5073893;28;20146;-79
2021/04/15 04:57:50;;;;;;;8.77;3.40;;;0.20;92.70;;;;;;5069618;28;20044;-80
2021/04/15 05:00:20;;;;;;;9.05;4.28;;;0.20;92.80;;;;;;5074122;28;20029;-80
2021/04/15 05:02:56;;;;;;;10.05;3.88;;;0.10;92.90;;;;;;5076481;28;20032;-80
2021/04/15 05:05:28;;;;;;;7.95;4.00;;;0.20;92.90;;;;;;5056810;28;20046;-79
2021/04/15 05:08:13;;;;;;;7.03;4.07;;;0.20;92.90;;;;;;5060110;28;21433;-80
2021/04/15 05:10:40;;;;;;;9.27;3.60;;;0.20;92.90;;;;;;5089510;28;20032;-80
2021/04/15 05:13:18;;;;;;;9.95;3.83;;;0.20;93.00;;;;;;5090574;28;20031;-80
2021/04/15 05:15:44;;;;;;;7.60;4.03;;;0.20;93.00;;;;;;5079771;28;20055;-80
2021/04/15 05:18:15;;;;;;;10.05;4.75;;;0.20;93.00;;;;;;5056718;28;20128;-79
2021/04/15 05:20:42;;;;;;;11.25;4.53;;;0.20;93.00;;;;;;5072888;28;20024;-80
2021/04/15 05:23:33;;;;;;;9.60;5.05;;;0.20;93.00;;;;;;5085999;28;20032;-80
2021/04/15 05:26:27;;;;;;;6.65;4.22;;;0.20;93.00;;;;;;5076694;28;20050;-80
2021/04/15 05:28:57;;;;;;;11.20;4.97;;;0.20;93.00;;;;;;5081382;28;20061;-80
2021/04/15 05:31:26;;;;;;;12.05;5.00;;;0.20;93.00;;;;;;5062882;28;20044;-80
2021/04/15 05:33:53;;;;;;;11.65;5.50;;;0.20;93.00;;;;;;5074712;28;20158;-80
2021/04/15 05:36:30;;;;;;;14.25;5.93;;;0.30;93.00;;;;;;5082041;28;20067;-80
2021/04/15 05:39:00;;;;;;;15.98;5.90;;;0.30;93.20;;;;;;5100036;28;20039;-79
2021/04/15 05:41:30;;;;;;;10.07;5.60;;;0.40;93.10;;;;;;5077684;28;20033;-80
2021/04/15 05:44:04;;;;;;;13.20;6.07;;;0.40;93.10;;;;;;5062449;28;20036;-79
2021/04/15 05:46:39;;;;;;;16.90;6.65;;;0.50;93.10;;;;;;5075227;28;20052;-80
2021/04/15 05:49:06;;;;;;;12.50;5.53;;;0.50;93.20;;;;;;5055610;28;20183;-80
2021/04/15 05:52:13;;;;;;;11.25;6.00;;;0.70;93.30;;;;;;5071901;28;20446;-80
2021/04/15 05:54:40;;;;;;;15.70;5.85;;;0.80;93.30;;;;;;5075096;28;20036;-81
2021/04/15 05:57:15;;;;;;;13.15;5.75;;;0.90;93.20;;;;;;5071912;28;20067;-81
2021/04/15 05:59:53;;;;;;;12.57;5.85;;;1.00;93.10;;;;;;5074865;28;20036;-81
2021/04/15 06:02:50;;;;;;;9.82;5.75;;;1.00;93.10;;;;;;5072166;28;20515;-81
2021/04/15 06:05:45;;;;;;;16.42;6.70;;;1.00;93.10;;;;;;5066011;28;20040;-80
2021/04/15 06:08:11;;;;;;;15.00;5.80;;;1.10;93.00;;;;;;5055489;28;20036;-80
2021/04/15 06:10:39;;;;;;;10.32;5.45;;;1.10;93.00;;;;;;5059652;28;20047;-80
2021/04/15 06:13:28;;;;;;;15.02;5.60;;;1.20;93.00;;;;;;5071593;28;20117;-80
2021/04/15 06:16:03;;;;;;;11.25;4.95;;;1.30;93.00;;;;;;5078241;28;20119;-80
2021/04/15 06:18:51;;;;;;;8.90;5.20;;;1.30;93.00;;;;;;5077516;28;20040;-80
2021/04/15 06:21:19;;;;;;;13.07;5.32;;;1.40;93.00;;;;;;5070343;28;20063;-80
2021/04/15 06:23:50;;;;;;;9.93;5.25;;;1.50;93.00;;;;;;5073958;28;20036;-80
2021/04/15 06:26:42;;;;;;;12.68;5.30;;;1.50;93.00;;;;;;5077263;28;20028;-80
2021/04/15 06:29:37;;;;;;;15.20;5.60;;;1.60;93.00;;;;;;5083699;28;20546;-80
2021/04/15 06:32:04;;;;;;;11.07;5.55;;;1.70;92.90;;;;;;5066926;28;20248;-80
2021/04/15 06:34:31;;;;;;;12.00;5.55;;;1.80;93.20;;;;;;5069785;28;20097;-80
2021/04/15 06:37:12;;;;;;;9.25;5.50;;;1.90;93.00;;;;;;5062536;28;20028;-80
2021/04/15 06:39:49;;;;;;;11.50;6.28;;;1.90;93.00;;;;;;5064906;28;20055;-80
2021/04/15 06:42:27;;;;;;;20.60;8.77;;;2.00;93.00;;;;;;5062613;28;20326;-80
2021/04/15 06:45:08;;;;;;;24.70;8.52;;;2.10;93.00;;;;;;5062565;28;20048;-80
2021/04/15 06:47:49;;;;;;;25.55;9.70;;;2.20;93.10;;;;;;5064111;28;20029;-80
2021/04/15 06:50:30;;;;;;;15.45;7.90;;;2.40;93.20;;;;;;5068582;28;20029;-80
2021/04/15 06:53:22;;;;;;;20.13;8.45;;;2.50;93.30;;;;;;5067829;28;20048;-80
2021/04/15 06:56:14;;;;;;;18.98;8.32;;;2.60;93.40;;;;;;5069363;28;20525;-81
2021/04/15 06:58:59;;;;;;;20.90;8.63;;;2.90;93.60;;;;;;5079999;28;20048;-80
2021/04/15 07:01:50;;;;;;;24.88;8.13;;;3.20;93.70;;;;;;5077103;28;20031;-80
2021/04/15 07:04:29;;;;;;;21.15;7.03;;;3.50;93.50;;;;;;5084402;28;20417;-81
2021/04/15 07:07:07;;;;;;;21.58;7.45;;;3.70;93.30;;;;;;5071468;28;20347;-81
2021/04/15 07:10:15;;;;;;;19.67;7.82;;;3.90;93.20;;;;;;5075162;28;20040;-82
2021/04/15 07:13:03;;;;;;;21.17;7.05;;;4.10;93.20;;;;;;5083717;28;20068;-82
2021/04/15 07:15:48;;;;;;;19.17;7.00;;;4.40;93.10;;;;;;5081422;28;20247;-81
2021/04/15 07:18:17;;;;;;;20.55;7.20;;;4.60;93.10;;;;;;5085632;28;20089;-82
2021/04/15 07:21:07;;;;;;;21.15;8.15;;;4.80;92.90;;;;;;5085723;28;20043;-81
2021/04/15 07:23:48;;;;;;;16.55;6.97;;;4.90;92.90;;;;;;5085237;28;20043;-81
2021/04/15 07:26:48;;;;;;;18.60;7.57;;;5.10;92.90;;;;;;5073781;28;20033;-81
2021/04/15 07:29:41;;;;;;;23.20;6.88;;;5.30;92.80;;;;;;5073306;28;20063;-80
2021/04/15 07:32:16;;;;;;;25.02;7.15;;;5.50;92.60;;;;;;5089359;28;20056;-81
2021/04/15 07:35:09;;;;;;;16.42;6.40;;;5.70;92.50;;;;;;5086974;28;20066;-80
2021/04/15 07:37:47;;;;;;;24.08;7.50;;;5.80;92.40;;;;;;5078953;28;20028;-80
2021/04/15 07:40:21;;;;;;;21.10;8.52;;;5.90;92.30;;;;;;5059742;28;20110;-81
2021/04/15 07:43:21;;;;;;;23.50;7.55;;;6.10;92.40;;;;;;5077108;28;20402;-81
2021/04/15 07:46:14;;;;;;;15.75;6.10;;;6.30;92.40;;;;;;5085093;28;20414;-81
2021/04/15 07:49:00;;;;;;;16.20;5.10;;;6.40;92.00;;;;;;5073179;28;20037;-81
2021/04/15 07:51:29;;;;;;;11.52;5.55;;;6.40;91.70;;;;;;5092515;28;20039;-82
2021/04/15 07:54:11;;;;;;;16.30;5.57;;;6.20;91.60;;;;;;5103379;28;20020;-82
2021/04/15 07:56:53;;;;;;;13.60;4.95;;;6.20;91.60;;;;;;5104153;28;20024;-82
2021/04/15 07:59:40;;;;;;;17.30;5.85;;;6.10;91.70;;;;;;5102188;28;20043;-82
2021/04/15 08:02:12;;;;;;;15.70;4.80;;;6.10;91.80;;;;;;5100460;28;20352;-83
2021/04/15 08:04:59;;;;;;;10.40;4.80;;;6.10;91.70;;;;;;5090385;28;20046;-82
2021/04/15 08:07:46;;;;;;;14.95;4.88;;;6.30;91.60;;;;;;5092531;28;20048;-82
2021/04/15 08:10:15;;;;;;;15.23;4.55;;;6.60;91.30;;;;;;5094692;28;20296;-81
2021/04/15 08:13:18;;;;;;;14.38;4.80;;;6.90;91.10;;;;;;5082315;28;20040;-82
2021/04/15 08:16:25;;;;;;;11.90;5.20;;;7.10;91.00;;;;;;5092254;28;20034;-82
2021/04/15 08:19:28;;;;;;;14.50;4.88;;;7.30;90.80;;;;;;5081740;28;20594;-81
2021/04/15 08:22:07;;;;;;;16.60;4.45;;;7.30;90.50;;;;;;5096105;28;20391;-81
2021/04/15 08:25:08;;;;;;;11.93;5.03;;;7.30;90.40;;;;;;5087123;28;20271;-81
2021/04/15 08:27:55;;;;;;;12.38;4.45;;;7.30;90.00;;;;;;5095540;28;20097;-82
2021/04/15 08:30:45;;;;;;;13.02;4.38;;;7.30;88.50;;;;;;5098407;28;20032;-82
2021/04/15 08:33:38;;;;;;;14.55;4.15;;;7.30;89.30;;;;;;5096532;28;20569;-81
2021/04/15 08:36:07;;;;;;;10.05;3.90;;;7.40;88.20;;;;;;5091314;28;20039;-81
2021/04/15 08:38:51;;;;;;;8.68;3.75;;;7.40;88.00;;;;;;5098123;28;20036;-81
2021/04/15 08:41:43;;;;;;;13.82;4.30;;;7.40;87.60;;;;;;5089123;28;20028;-80
2021/04/15 08:44:21;;;;;;;9.57;3.70;;;7.50;86.80;;;;;;5096762;28;20028;-82
2021/04/15 08:47:00;;;;;;;13.13;3.97;;;7.60;85.80;;;;;;5079059;28;20282;-82
2021/04/15 08:49:49;;;;;;;11.43;3.83;;;7.60;85.50;;;;;;5088256;28;20051;-83
2021/04/15 08:52:36;;;;;;;8.75;3.85;;;7.60;84.30;;;;;;5085502;28;20032;-81
2021/04/15 08:55:15;;;;;;;10.18;4.32;;;7.70;84.50;;;;;;5085236;28;20056;-82
2021/04/15 08:58:22;;;;;;;9.63;3.63;;;7.70;84.40;;;;;;5085469;28;20113;-81
2021/04/15 09:01:04;;;;;;;7.10;3.58;;;7.80;84.60;;;;;;5072811;28;20127;-82
2021/04/15 09:03:50;;;;;;;11.50;3.17;;;7.80;84.20;;;;;;5084861;28;20047;-82
2021/04/15 09:06:21;;;;;;;8.68;3.40;;;7.90;81.80;;;;;;5081976;28;20036;-81
2021/04/15 09:08:56;;;;;;;11.70;3.40;;;7.90;81.70;;;;;;5077406;28;20352;-82
2021/04/15 09:11:34;;;;;;;6.63;3.30;;;7.90;79.50;;;;;;5060880;28;20095;-83
2021/04/15 09:14:38;;;;;;;11.57;3.70;;;8.00;77.80;;;;;;5089357;28;20482;-81
2021/04/15 09:17:07;;;;;;;9.98;3.58;;;8.00;78.70;;;;;;5069163;28;20047;-83
2021/04/15 09:19:43;;;;;;;3.38;2.50;;;8.00;79.60;;;;;;5096579;28;20036;-82
2021/04/15 09:22:48;;;;;;;11.35;3.60;;;8.00;77.00;;;;;;5087124;28;20032;-81
2021/04/15 09:25:46;;;;;;;6.93;2.85;;;8.00;75.00;;;;;;5089837;28;20631;-81
2021/04/15 09:28:34;;;;;;;11.70;3.22;;;8.10;76.50;;;;;;5088564;28;20093;-82
2021/04/15 09:31:12;;;;;;;9.90;2.80;;;8.20;75.50;;;;;;5085994;28;20040;-81
2021/04/15 09:33:56;;;;;;;5.85;2.85;;;8.30;74.40;;;;;;5087942;28;20539;-82
2021/04/15 09:36:48;;;;;;;5.30;2.58;;;8.30;73.60;;;;;;5091964;28;20039;-81
2021/04/15 09:39:32;;;;;;;7.63;2.67;;;8.40;74.10;;;;;;5080669;28;20067;-82
2021/04/15 09:42:16;;;;;;;7.03;2.70;;;8.60;77.10;;;;;;5087514;28;20233;-81
2021/04/15 09:45:08;;;;;;;8.23;2.83;;;8.80;75.50;;;;;;5090127;28;20115;-80
2021/04/15 09:48:11;;;;;;;8.57;2.72;;;9.00;74.10;;;;;;5089095;28;20394;-79
2021/04/15 09:51:10;;;;;;;6.28;2.28;;;9.10;68.00;;;;;;5086084;28;20072;-80
2021/04/15 09:54:03;;;;;;;6.13;2.20;;;9.00;66.40;;;;;;5089800;28;20032;-83
2021/04/15 09:56:50;;;;;;;2.75;1.65;;;8.90;65.10;;;;;;5082151;28;20036;-82
2021/04/15 09:59:24;;;;;;;7.68;2.38;;;9.00;60.60;;;;;;5087155;28;20143;-80
2021/04/15 10:01:57;;;;;;;7.05;2.67;;;8.90;63.50;;;;;;5085312;28;20208;-81
2021/04/15 10:04:37;;;;;;;6.47;2.42;;;9.10;65.80;;;;;;5086331;28;20067;-80
2021/04/15 10:07:12;;;;;;;7.03;2.55;;;9.30;65.60;;;;;;5084583;28;20748;-81
2021/04/15 10:10:02;;;;;;;3.00;2.13;;;9.50;66.40;;;;;;5078066;28;20040;-81
2021/04/15 10:12:56;;;;;;;4.90;2.20;;;9.70;64.60;;;;;;5073530;28;20041;-82
2021/04/15 10:15:36;;;;;;;2.60;2.00;;;9.90;63.60;;;;;;5084122;28;20035;-81
2021/04/15 10:18:21;;;;;;;4.78;1.83;;;10.00;62.40;;;;;;5081499;28;20032;-81
2021/04/15 10:20:58;;;;;;;2.55;2.00;;;10.00;62.90;;;;;;5087386;28;20050;-81
2021/04/15 10:23:55;;;;;;;7.53;2.58;;;10.10;63.40;;;;;;5089688;28;20497;-81
2021/04/15 10:26:38;;;;;;;6.88;2.05;;;10.10;61.00;;;;;;5081238;28;20048;-82
2021/04/15 10:29:27;;;;;;;4.63;2.30;;;10.10;61.50;;;;;;5084265;28;20036;-81
2021/04/15 10:32:05;;;;;;;3.60;2.00;;;9.90;60.20;;;;;;5088884;28;20047;-83
2021/04/15 10:34:53;;;;;;;5.25;1.83;;;9.70;59.60;;;;;;5087190;28;20027;-82
2021/04/15 10:38:03;;;;;;;4.43;1.95;;;9.60;55.00;;;;;;5075308;28;20036;-82
2021/04/15 10:40:50;;;;;;;5.55;1.70;;;9.50;53.10;;;;;;5084516;28;20129;-81
2021/04/15 10:43:34;;;;;;;3.70;2.00;;;9.50;53.50;;;;;;5081172;28;20082;-81
2021/04/15 10:46:37;;;;;;;4.13;1.80;;;9.50;55.00;;;;;;5073824;28;20036;-80
2021/04/15 10:49:09;;;;;;;2.92;1.60;;;9.50;52.00;;;;;;5086198;28;20044;-81
2021/04/15 10:51:41;;;;;;;3.87;1.80;;;9.40;53.30;;;;;;5085835;28;20037;-80
2021/04/15 10:54:26;;;;;;;5.57;2.28;;;9.40;52.10;;;;;;5090247;28;20224;-81
2021/04/15 10:56:56;;;;;;;4.65;1.80;;;9.40;53.40;;;;;;5089148;28;20059;-81
2021/04/15 10:59:31;;;;;;;3.55;1.95;;;9.60;53.70;;;;;;5093224;28;20071;-81
2021/04/15 11:02:17;;;;;;;3.92;1.90;;;9.70;52.50;;;;;;5084207;28;20109;-81
2021/04/15 11:04:43;;;;;;;3.78;1.75;;;9.90;53.50;;;;;;5094829;28;20117;-83
2021/04/15 11:07:33;;;;;;;3.88;1.73;;;10.10;54.50;;;;;;5072726;28;20037;-81
2021/04/15 11:10:16;;;;;;;2.97;1.50;;;10.30;53.20;;;;;;5079807;28;20027;-81
2021/04/15 11:12:43;;;;;;;3.85;1.50;;;10.50;55.00;;;;;;5088009;28;20135;-82
2021/04/15 11:15:15;;;;;;;4.78;1.52;;;10.60;53.10;;;;;;5076549;28;20043;-81
2021/04/15 11:17:48;;;;;;;2.25;1.38;;;10.50;52.40;;;;;;5073384;28;20060;-81
2021/04/15 11:20:27;;;;;;;5.18;1.52;;;10.30;51.70;;;;;;5050969;28;20100;-81
2021/04/15 11:23:13;;;;;;;2.83;1.67;;;10.20;51.40;;;;;;5078154;28;20274;-81
2021/04/15 11:25:48;;;;;;;2.70;1.60;;;10.10;49.10;;;;;;5071902;28;20471;-82
2021/04/15 11:28:23;;;;;;;6.22;1.77;;;10.10;47.00;;;;;;5070687;28;20436;-82
2021/04/15 11:30:56;;;;;;;6.90;1.70;;;10.00;47.90;;;;;;5074597;28;20100;-82
2021/04/15 11:33:46;;;;;;;4.30;1.70;;;10.10;49.20;;;;;;5068322;28;20044;-82
2021/04/15 11:36:18;;;;;;;2.80;1.40;;;10.40;47.80;;;;;;5077874;28;20052;-81
2021/04/15 11:38:47;;;;;;;3.55;1.60;;;10.60;49.30;;;;;;5081869;28;20082;-82
2021/04/15 11:41:18;;;;;;;1.70;1.30;;;10.70;47.40;;;;;;5091149;28;20446;-81
2021/04/15 11:43:44;;;;;;;3.92;1.60;;;10.60;47.50;;;;;;5076700;28;20086;-81
2021/04/15 11:46:26;;;;;;;4.57;1.45;;;10.50;48.70;;;;;;5061389;28;20502;-81
2021/04/15 11:49:13;;;;;;;3.13;1.60;;;10.50;49.90;;;;;;5059845;28;20043;-81
2021/04/15 11:52:06;;;;;;;4.43;1.55;;;10.60;49.50;;;;;;5080148;28;20047;-80
2021/04/15 11:54:40;;;;;;;6.00;1.40;;;10.90;50.20;;;;;;5084650;28;20037;-80
2021/04/15 11:57:25;;;;;;;2.20;1.35;;;11.20;46.80;;;;;;5088490;28;20032;-80
2021/04/15 12:00:00;;;;;;;2.00;1.25;;;11.30;46.10;;;;;;5086827;28;20564;-80
2021/04/15 12:02:55;;;;;;;4.28;1.40;;;11.60;46.60;;;;;;5064512;28;20054;-81
2021/04/15 12:05:29;;;;;;;4.03;1.60;;;11.80;46.40;;;;;;5063438;28;20032;-82
2021/04/15 12:08:17;;;;;;;4.47;1.65;;;12.10;48.40;;;;;;5061732;28;20056;-81
2021/04/15 12:10:48;;;;;;;4.95;1.85;;;12.20;46.60;;;;;;5067101;28;20154;-81
2021/04/15 12:13:30;;;;;;;3.03;1.60;;;12.10;47.00;;;;;;5066953;28;20028;-87
2021/04/15 12:16:13;;;;;;;4.57;1.60;;;11.90;45.00;;;;;;5072863;28;20040;-80
2021/04/15 12:18:42;;;;;;;3.95;1.75;;;11.50;44.80;;;;;;5061400;28;20029;-84
2021/04/15 12:21:29;;;;;;;4.20;1.30;;;11.30;44.20;;;;;;5066040;28;20063;-80
2021/04/15 12:24:14;;;;;;;2.05;1.40;;;11.40;44.30;;;;;;5067566;28;20418;-81
2021/04/15 12:26:44;;;;;;;4.47;1.80;;;11.50;42.10;;;;;;5063986;28;20044;-81
2021/04/15 12:29:38;;;;;;;4.22;1.50;;;11.50;45.50;;;;;;5068665;28;20315;-81
2021/04/15 12:32:19;;;;;;;2.17;1.30;;;11.40;44.90;;;;;;5077901;28;20335;-83
2021/04/15 12:35:07;;;;;;;3.10;1.20;;;11.30;45.10;;;;;;5085907;28;20031;-82
2021/04/15 12:37:44;;;;;;;5.82;1.52;;;11.20;44.50;;;;;;5069535;28;20494;-82
2021/04/15 12:40:21;;;;;;;4.00;1.48;;;11.00;44.10;;;;;;5070070;28;20123;-80
2021/04/15 12:42:52;;;;;;;2.88;1.90;;;10.80;44.20;;;;;;5072585;28;20867;-80
2021/04/15 12:45:34;;;;;;;3.40;1.60;;;10.60;43.80;;;;;;5069030;28;20063;-81
2021/04/15 12:48:02;;;;;;;3.60;1.60;;;10.60;43.70;;;;;;5068220;28;20055;-82
2021/04/15 12:50:30;;;;;;;4.82;1.60;;;10.50;44.60;;;;;;5073011;28;20100;-80
2021/04/15 12:52:57;;;;;;;2.25;1.42;;;10.60;44.30;;;;;;5069764;28;20058;-80
2021/04/15 12:55:25;;;;;;;3.35;1.80;;;10.80;43.90;;;;;;5068879;28;20082;-80
2021/04/15 12:57:52;;;;;;;2.45;1.40;;;11.00;44.90;;;;;;5069201;28;20024;-80
2021/04/15 13:00:33;;;;;;;6.20;1.75;;;11.40;44.30;;;;;;5070808;28;20048;-82
2021/04/15 13:03:12;;;;;;;4.65;1.80;;;11.50;42.30;;;;;;5068449;28;20028;-80
2021/04/15 13:05:37;;;;;;;6.40;1.67;;;11.60;43.50;;;;;;5075258;28;20115;-81
2021/04/15 13:08:27;;;;;;;6.78;2.00;;;11.80;45.20;;;;;;5081396;28;20123;-80
2021/04/15 13:10:53;;;;;;;2.67;1.60;;;11.90;47.40;;;;;;5090631;28;20051;-81
2021/04/15 13:13:38;;;;;;;4.55;1.80;;;12.10;46.80;;;;;;5083108;28;20051;-81
2021/04/15 13:16:26;;;;;;;5.40;1.90;;;12.10;45.80;;;;;;5084269;28;20071;-82
2021/04/15 13:18:52;;;;;;;6.95;2.30;;;11.90;44.40;;;;;;5086315;28;20256;-81
2021/04/15 13:21:32;;;;;;;4.05;1.88;;;11.60;44.30;;;;;;5089056;28;20518;-81
2021/04/15 13:24:00;;;;;;;5.07;1.77;;;11.30;43.90;;;;;;5088838;28;20490;-82
2021/04/15 13:26:30;;;;;;;6.22;2.00;;;11.20;44.70;;;;;;5082343;28;20217;-82
2021/04/15 13:29:10;;;;;;;3.13;1.92;;;11.00;43.10;;;;;;5089749;28;20046;-82
2021/04/15 13:31:41;;;;;;;6.35;2.13;;;10.90;43.60;;;;;;5084405;28;20037;-82
2021/04/15 13:34:10;;;;;;;5.07;1.75;;;10.90;43.90;;;;;;5078052;28;20047;-80
2021/04/15 13:36:37;;;;;;;5.20;2.10;;;11.40;44.00;;;;;;5082002;28;20043;-81
2021/04/15 13:39:27;;;;;;;5.60;2.50;;;12.00;44.10;;;;;;5068497;28;20346;-81
2021/04/15 13:41:53;;;;;;;3.05;2.00;;;12.60;43.10;;;;;;5079861;28;20479;-80
2021/04/15 13:44:58;;;;;;;3.90;2.20;;;13.40;43.30;;;;;;5084309;28;20042;-81
2021/04/15 13:47:46;;;;;;;3.75;1.88;;;14.50;43.00;;;;;;5098734;28;20036;-81
2021/04/15 13:50:14;;;;;;;5.03;1.95;;;15.40;42.20;;;;;;5081434;28;20043;-81